Time;durP1;ratioP1;P1;durP2;ratioP2;P2;SDS_P1;SDS_P2;PMS_P1;PMS_P2;Temp;Humidity;BMP_temperature;BMP_pressure;BME280_temperature;BME280_humidity;BME280_pressure;Samples;Min_cycle;Max_cycle;Signal;HPM_P1;HPM_P2
2022/04/30 00:01:11;;;;;;;15.60;14.10;;;11.60;99.90;;;;;;5099926;28;20491;-66
2022/04/30 00:03:38;;;;;;;16.33;14.83;;;11.60;99.90;;;;;;5092554;28;20468;-66
2022/04/30 00:06:06;;;;;;;16.10;14.60;;;11.50;99.90;;;;;;5089223;28;20481;-66
2022/04/30 00:08:33;;;;;;;14.97;13.57;;;11.60;99.90;;;;;;5089771;28;20505;-66
2022/04/30 00:10:59;;;;;;;17.77;16.10;;;11.60;99.90;;;;;;5089620;28;20537;-66
2022/04/30 00:13:28;;;;;;;15.37;13.87;;;11.60;99.90;;;;;;5089457;28;20525;-66
2022/04/30 00:15:54;;;;;;;15.53;14.13;;;11.60;99.90;;;;;;5089631;28;20475;-66
2022/04/30 00:18:21;;;;;;;17.10;15.30;;;11.50;99.90;;;;;;5089819;28;20626;-66
2022/04/30 00:20:48;;;;;;;16.43;14.83;;;11.50;99.90;;;;;;5089782;28;20537;-66
2022/04/30 00:23:21;;;;;;;17.47;15.67;;;11.50;99.90;;;;;;5089555;28;20536;-66
2022/04/30 00:25:50;;;;;;;17.33;15.63;;;11.50;99.90;;;;;;5089162;28;20552;-66
2022/04/30 00:28:17;;;;;;;18.30;15.47;;;11.60;99.90;;;;;;5089766;28;20438;-66
2022/04/30 00:30:46;;;;;;;16.57;15.00;;;11.70;99.90;;;;;;5089624;28;20434;-66
2022/04/30 00:33:13;;;;;;;17.60;15.97;;;11.60;99.90;;;;;;5089599;28;20431;-67
2022/04/30 00:35:40;;;;;;;16.93;15.33;;;11.60;99.90;;;;;;5089151;28;20517;-65
2022/04/30 00:38:08;;;;;;;17.70;16.00;;;11.60;99.90;;;;;;5089195;28;20488;-66
2022/04/30 00:40:35;;;;;;;16.47;14.90;;;11.60;99.90;;;;;;5089452;28;20477;-66
2022/04/30 00:43:02;;;;;;;18.30;16.47;;;11.60;99.90;;;;;;5089565;28;20446;-66
2022/04/30 00:45:29;;;;;;;16.57;15.13;;;11.60;99.90;;;;;;5089200;28;20470;-66
2022/04/30 00:47:58;;;;;;;16.07;14.47;;;11.60;99.90;;;;;;5089470;28;20446;-66
2022/04/30 00:50:28;;;;;;;15.47;13.90;;;11.80;99.90;;;;;;5089181;28;20448;-66
2022/04/30 00:52:57;;;;;;;16.50;14.80;;;11.80;99.90;;;;;;5089284;28;20449;-67
2022/04/30 00:55:28;;;;;;;15.73;14.10;;;11.80;99.90;;;;;;5089052;28;20511;-66
2022/04/30 00:57:59;;;;;;;16.60;15.00;;;11.70;99.90;;;;;;5089123;28;21031;-66
2022/04/30 01:00:27;;;;;;;14.90;13.43;;;11.70;99.90;;;;;;5089149;28;20450;-64
2022/04/30 01:02:53;;;;;;;16.20;14.50;;;11.70;99.90;;;;;;5089281;28;20446;-66
2022/04/30 01:05:22;;;;;;;15.87;12.93;;;11.70;99.90;;;;;;5088636;28;20462;-66
2022/04/30 01:07:49;;;;;;;13.63;12.43;;;11.70;99.90;;;;;;5089184;28;20579;-67
2022/04/30 01:10:16;;;;;;;14.90;13.40;;;11.80;99.90;;;;;;5089307;28;20497;-66
2022/04/30 01:12:43;;;;;;;13.83;12.50;;;11.80;99.90;;;;;;5092846;28;20968;-65
2022/04/30 01:15:12;;;;;;;14.77;13.37;;;11.80;99.90;;;;;;5092565;28;20472;-66
2022/04/30 01:17:42;;;;;;;14.53;12.80;;;11.90;99.90;;;;;;5092915;28;20605;-66
2022/04/30 01:20:10;;;;;;;15.33;13.90;;;11.90;99.90;;;;;;5092654;28;20450;-66
2022/04/30 01:22:53;;;;;;;14.20;12.77;;;11.80;99.90;;;;;;5092844;28;20445;-66
2022/04/30 01:25:21;;;;;;;14.67;13.37;;;11.90;99.90;;;;;;5092328;28;20477;-67
2022/04/30 01:27:50;;;;;;;16.90;15.30;;;11.90;99.90;;;;;;5092447;28;20438;-67
2022/04/30 01:30:17;;;;;;;18.67;14.97;;;11.90;99.90;;;;;;5092633;28;20821;-66
2022/04/30 01:38:29;;;;;;;16.70;15.00;;;11.90;99.90;;;;;;5049539;28;20472;-66
2022/04/30 01:40:56;;;;;;;17.80;16.20;;;11.90;99.90;;;;;;5049762;28;20444;-66
2022/04/30 01:43:23;;;;;;;21.67;16.53;;;11.90;99.90;;;;;;5068506;28;20450;-66
2022/04/30 01:45:51;;;;;;;17.73;16.07;;;11.90;99.90;;;;;;5092346;28;20469;-66
2022/04/30 01:48:18;;;;;;;17.83;16.13;;;11.90;99.90;;;;;;5092495;28;20438;-66
2022/04/30 01:50:45;;;;;;;17.53;15.80;;;11.90;99.90;;;;;;5092394;28;20453;-66
2022/04/30 01:53:12;;;;;;;21.37;17.10;;;11.90;99.90;;;;;;5091970;28;20448;-65
2022/04/30 01:55:40;;;;;;;18.03;16.23;;;11.80;99.90;;;;;;5091715;28;20983;-66
2022/04/30 01:58:07;;;;;;;20.73;18.37;;;11.80;99.90;;;;;;5091818;28;20478;-66
2022/04/30 02:00:34;;;;;;;20.57;16.83;;;11.70;99.90;;;;;;5092121;28;20549;-65
2022/04/30 02:03:05;;;;;;;20.77;17.87;;;11.80;99.90;;;;;;5091919;28;20448;-66
2022/04/30 02:05:33;;;;;;;20.13;17.97;;;11.80;99.90;;;;;;5091596;28;20466;-67
2022/04/30 02:08:03;;;;;;;19.70;15.57;;;11.80;99.90;;;;;;5091834;28;20802;-67
2022/04/30 02:10:32;;;;;;;19.23;16.20;;;11.70;99.90;;;;;;5091952;28;20446;-66
2022/04/30 02:13:01;;;;;;;22.03;18.40;;;11.70;99.90;;;;;;5092001;28;20446;-66
2022/04/30 02:15:29;;;;;;;23.73;17.90;;;11.70;99.90;;;;;;5091199;28;20462;-67
2022/04/30 02:17:58;;;;;;;20.83;17.57;;;11.70;99.90;;;;;;5091569;28;21014;-66
2022/04/30 02:20:29;;;;;;;20.90;18.67;;;11.70;99.90;;;;;;5091255;28;20941;-65
2022/04/30 02:22:57;;;;;;;25.33;18.37;;;11.70;99.90;;;;;;5090529;28;20830;-66
2022/04/30 02:25:25;;;;;;;21.10;17.93;;;11.70;99.90;;;;;;5090860;28;20556;-66
2022/04/30 02:27:54;;;;;;;23.10;19.23;;;11.70;99.90;;;;;;5091352;28;20816;-67
2022/04/30 02:30:24;;;;;;;25.53;18.50;;;11.70;99.90;;;;;;5091339;28;20454;-66
2022/04/30 02:32:53;;;;;;;23.20;19.80;;;11.70;99.90;;;;;;5091305;28;20944;-66
2022/04/30 02:35:21;;;;;;;26.00;18.27;;;11.70;99.90;;;;;;5091085;28;20466;-66
2022/04/30 02:37:50;;;;;;;22.40;19.30;;;11.70;99.90;;;;;;5091498;28;20486;-66
2022/04/30 02:40:17;;;;;;;21.20;17.27;;;11.70;99.90;;;;;;5091143;28;20446;-66
2022/04/30 02:42:45;;;;;;;25.33;19.13;;;11.60;99.90;;;;;;5091149;28;20470;-66
2022/04/30 02:45:13;;;;;;;24.10;18.73;;;11.60;99.90;;;;;;5090867;28;20508;-66
2022/04/30 02:47:43;;;;;;;21.93;17.63;;;11.60;99.90;;;;;;5091152;28;20541;-66
2022/04/30 02:50:11;;;;;;;28.90;19.93;;;11.60;99.90;;;;;;5091184;28;20944;-65
2022/04/30 02:52:41;;;;;;;30.13;21.83;;;11.60;99.90;;;;;;5090976;28;20817;-66
2022/04/30 02:55:09;;;;;;;25.97;20.60;;;11.60;99.90;;;;;;5090627;28;20571;-65
2022/04/30 02:59:53;;;;;;;26.17;19.57;;;11.60;99.90;;;;;;5090669;28;20559;-65
2022/04/30 03:00:28;;;;;;;22.37;18.43;;;11.70;99.90;;;;;;5090675;28;20442;-65
2022/04/30 03:02:56;;;;;;;25.80;19.67;;;11.60;99.90;;;;;;5090735;28;20446;-67
2022/04/30 03:05:23;;;;;;;26.90;19.60;;;11.60;99.90;;;;;;5090462;28;20470;-66
2022/04/30 03:07:51;;;;;;;25.50;18.00;;;11.60;99.90;;;;;;5090668;28;20450;-66
2022/04/30 03:10:18;;;;;;;26.70;20.70;;;11.60;99.90;;;;;;5090698;28;20446;-66
2022/04/30 03:12:45;;;;;;;26.10;20.10;;;11.50;99.90;;;;;;5090483;28;20450;-66
2022/04/30 03:15:12;;;;;;;27.40;20.13;;;11.50;99.90;;;;;;5090769;28;20494;-66
2022/04/30 03:23:09;;;;;;;28.00;22.03;;;11.50;99.90;;;;;;5090484;28;20421;-66
2022/04/30 03:25:36;;;;;;;37.30;23.97;;;11.60;99.90;;;;;;5090049;28;20888;-66
2022/04/30 03:28:03;;;;;;;29.10;21.80;;;11.50;99.90;;;;;;5090488;28;20450;-67
2022/04/30 03:30:31;;;;;;;28.13;22.03;;;11.50;99.90;;;;;;5090570;28;20450;-66
2022/04/30 03:32:57;;;;;;;32.23;23.20;;;11.50;99.90;;;;;;5090646;28;20478;-66
2022/04/30 03:35:26;;;;;;;27.47;21.63;;;11.50;99.90;;;;;;5089765;28;20474;-69
2022/04/30 03:37:52;;;;;;;34.23;24.23;;;11.50;99.90;;;;;;5089690;28;20577;-66
2022/04/30 03:40:19;;;;;;;29.30;21.20;;;11.50;99.90;;;;;;5094830;28;20452;-66
2022/04/30 03:42:46;;;;;;;26.37;20.70;;;11.50;99.90;;;;;;5094478;28;20449;-67
2022/04/30 03:45:13;;;;;;;31.77;23.57;;;11.50;99.90;;;;;;5096197;28;20457;-67
2022/04/30 03:47:40;;;;;;;32.93;23.63;;;11.40;99.90;;;;;;5090144;28;20446;-66
2022/04/30 03:50:07;;;;;;;33.90;23.73;;;11.50;99.90;;;;;;5089842;28;20537;-66
2022/04/30 03:52:35;;;;;;;35.53;25.27;;;11.50;99.90;;;;;;5090179;28;20446;-66
2022/04/30 03:55:02;;;;;;;32.10;24.47;;;11.50;99.90;;;;;;5089678;28;20495;-65
2022/04/30 03:57:29;;;;;;;31.60;25.80;;;11.50;99.90;;;;;;5089826;28;20480;-66
2022/04/30 03:59:56;;;;;;;34.07;25.50;;;11.40;99.90;;;;;;5089752;28;20450;-66
2022/04/30 04:02:23;;;;;;;33.93;26.57;;;11.40;99.90;;;;;;5083186;28;20838;-66
2022/04/30 04:04:52;;;;;;;35.97;24.60;;;11.40;99.90;;;;;;5097671;28;20477;-66
2022/04/30 04:07:19;;;;;;;32.60;23.40;;;11.40;99.90;;;;;;5102861;28;20445;-67
2022/04/30 04:09:48;;;;;;;36.70;26.57;;;11.40;99.90;;;;;;5089878;28;20450;-66
2022/04/30 04:12:15;;;;;;;34.87;26.13;;;11.30;99.90;;;;;;5089662;28;20442;-66
2022/04/30 04:17:38;;;;;;;36.80;28.70;;;11.20;99.90;;;;;;5089462;28;20421;-66
2022/04/30 04:20:06;;;;;;;44.30;29.07;;;11.10;99.90;;;;;;5089819;28;20457;-65
2022/04/30 04:22:33;;;;;;;37.70;27.40;;;11.10;99.90;;;;;;5088932;28;20454;-66
2022/04/30 04:27:45;;;;;;;40.83;29.73;;;11.00;99.90;;;;;;5089471;28;20548;-68
2022/04/30 04:30:13;;;;;;;39.60;29.83;;;11.00;99.90;;;;;;5089788;28;20480;-66
2022/04/30 04:32:39;;;;;;;41.23;30.60;;;10.90;99.90;;;;;;5089366;28;20951;-66
2022/04/30 04:35:07;;;;;;;40.90;30.27;;;10.90;99.90;;;;;;5089365;28;20501;-66
2022/04/30 04:37:34;;;;;;;43.07;29.20;;;10.90;99.90;;;;;;5089222;28;20486;-66
2022/04/30 04:40:03;;;;;;;38.47;29.70;;;10.90;99.90;;;;;;5089374;28;20446;-67
2022/04/30 04:42:29;;;;;;;39.43;28.10;;;10.90;99.90;;;;;;5089427;28;20446;-67
2022/04/30 04:44:56;;;;;;;39.73;29.47;;;10.80;99.90;;;;;;5088793;28;20553;-66
2022/04/30 04:47:23;;;;;;;41.93;31.20;;;10.80;99.90;;;;;;5092888;28;20474;-66
2022/04/30 04:49:50;;;;;;;38.07;29.97;;;10.80;99.90;;;;;;5093324;28;20877;-67
2022/04/30 04:52:17;;;;;;;40.00;28.00;;;10.80;99.90;;;;;;5093332;28;20449;-68
2022/04/30 04:54:44;;;;;;;39.30;29.70;;;10.80;99.90;;;;;;5092747;28;20470;-67
2022/04/30 04:57:12;;;;;;;41.30;30.03;;;10.80;99.90;;;;;;5093268;28;20939;-69
2022/04/30 04:59:39;;;;;;;39.73;28.77;;;10.80;99.90;;;;;;5093136;28;20489;-69
2022/04/30 05:02:05;;;;;;;44.87;28.10;;;10.80;99.90;;;;;;5093243;28;20890;-70
2022/04/30 05:04:33;;;;;;;41.47;30.20;;;10.80;99.90;;;;;;5092527;28;20470;-68
2022/04/30 05:07:00;;;;;;;40.33;29.47;;;10.90;99.90;;;;;;5092996;28;20442;-68
2022/04/30 05:09:27;;;;;;;38.87;27.90;;;10.90;99.90;;;;;;5092782;28;20434;-69
2022/04/30 05:11:54;;;;;;;38.60;31.10;;;10.90;99.90;;;;;;5087809;28;20458;-67
2022/04/30 05:14:22;;;;;;;35.43;29.10;;;10.90;99.90;;;;;;5091578;28;20446;-68
2022/04/30 05:16:49;;;;;;;44.30;30.23;;;10.90;99.90;;;;;;5089820;28;20452;-68
2022/04/30 05:19:16;;;;;;;40.53;30.70;;;11.00;99.90;;;;;;5090269;28;20929;-65
2022/04/30 05:21:43;;;;;;;44.27;29.70;;;11.00;99.90;;;;;;5086195;28;20493;-67
2022/04/30 05:24:10;;;;;;;40.23;29.43;;;11.00;99.90;;;;;;5092397;28;20452;-67
2022/04/30 05:26:36;;;;;;;41.20;29.10;;;11.00;99.90;;;;;;5092117;28;20537;-67
2022/04/30 05:29:03;;;;;;;39.13;27.83;;;10.90;99.90;;;;;;5091545;28;20815;-67
2022/04/30 05:31:32;;;;;;;38.90;29.57;;;10.90;99.90;;;;;;5091531;28;20947;-67
2022/04/30 05:33:58;;;;;;;40.40;28.83;;;10.90;99.90;;;;;;5091433;28;20442;-67
2022/04/30 05:36:25;;;;;;;41.07;30.60;;;10.90;99.90;;;;;;5091157;28;20469;-67
2022/04/30 05:38:52;;;;;;;42.53;30.27;;;10.90;99.90;;;;;;5091000;28;21080;-67
2022/04/30 05:41:19;;;;;;;39.33;27.80;;;10.90;99.90;;;;;;5091196;28;20450;-67
2022/04/30 05:43:46;;;;;;;39.80;30.90;;;11.00;99.90;;;;;;5090932;28;20864;-67
2022/04/30 05:46:13;;;;;;;37.40;28.17;;;10.90;99.90;;;;;;5089341;28;20462;-66
2022/04/30 05:48:41;;;;;;;48.70;31.23;;;11.00;99.90;;;;;;5091119;28;20446;-66
2022/04/30 05:51:08;;;;;;;48.77;33.20;;;11.00;99.90;;;;;;5090300;28;20450;-66
2022/04/30 05:53:35;;;;;;;38.83;29.90;;;11.00;99.90;;;;;;5090596;28;20450;-67
2022/04/30 05:56:02;;;;;;;39.00;31.90;;;11.10;99.90;;;;;;5090100;28;20470;-66
2022/04/30 05:58:29;;;;;;;36.37;28.50;;;11.10;99.90;;;;;;5090944;28;20508;-66
2022/04/30 06:00:56;;;;;;;40.67;29.23;;;11.10;99.90;;;;;;5090646;28;20457;-67
2022/04/30 06:03:23;;;;;;;37.00;28.37;;;11.20;99.90;;;;;;5090948;28;20465;-67
2022/04/30 06:05:51;;;;;;;38.17;29.70;;;11.30;99.90;;;;;;5090564;28;20557;-67
2022/04/30 06:08:18;;;;;;;40.73;30.87;;;11.40;99.90;;;;;;5090312;28;20444;-66
2022/04/30 06:10:45;;;;;;;37.60;28.80;;;11.40;99.90;;;;;;5090826;28;20457;-66
2022/04/30 06:13:12;;;;;;;34.23;27.30;;;11.50;99.90;;;;;;5090854;28;20450;-66
2022/04/30 06:15:39;;;;;;;38.60;29.30;;;11.40;99.90;;;;;;5090546;28;20478;-65
2022/04/30 06:18:06;;;;;;;38.40;29.13;;;11.50;99.90;;;;;;5090484;28;20438;-66
2022/04/30 06:20:33;;;;;;;44.00;31.20;;;11.50;99.90;;;;;;5090748;28;20442;-66
2022/04/30 06:23:02;;;;;;;36.17;28.63;;;11.50;99.90;;;;;;5090517;28;20955;-66
2022/04/30 06:25:29;;;;;;;34.67;26.43;;;11.40;99.90;;;;;;5090195;28;21029;-66
2022/04/30 07:57:12;;;;;;;29.97;25.73;;;11.30;99.90;;;;;;5105126;27;20530;-67
2022/04/30 07:59:52;;;;;;;30.67;24.17;;;11.80;99.90;;;;;;5057168;28;20463;-66
2022/04/30 08:18:52;;;;;;;;;;;;;;;;;;;;;
2022/04/30 08:21:33;;;;;;;24.40;21.80;;;11.70;99.90;;;;;;4955445;28;20428;-64
2022/04/30 08:30:54;;;;;;;;;;;;;;;;;;;;;
2022/04/30 08:46:36;;;;;;;34.93;29.30;;;12.00;99.90;;;;;;5005670;28;20422;-65
2022/04/30 08:49:56;;;;;;;27.73;23.60;;;11.80;99.90;;;;;;5059999;28;20459;-68
2022/04/30 08:59:04;;;;;;;;;;;;;;;;;;;;;
2022/04/30 09:20:37;;;;;;;;;;;;;;;;;;;;;
2022/04/30 09:26:44;;;;;;;22.67;20.00;;;12.10;99.90;;;;;;5046304;28;20456;-66
2022/04/30 09:29:45;;;;;;;24.30;20.13;;;12.10;99.90;;;;;;5045599;28;20617;-65
2022/04/30 09:40:06;;;;;;;19.50;17.40;;;12.20;99.90;;;;;;5038175;28;20504;-66
2022/04/30 09:43:07;;;;;;;18.67;16.67;;;12.10;99.90;;;;;;4965205;28;20535;-64
2022/04/30 09:56:25;;;;;;;;;;;;;;;;;;;;;
2022/04/30 10:05:46;;;;;;;16.67;14.80;;;11.60;99.90;;;;;;5040938;28;20447;-65
2022/04/30 10:08:56;;;;;;;14.60;13.07;;;11.60;99.90;;;;;;5034851;28;20459;-65
2022/04/30 10:22:29;;;;;;;13.30;11.90;;;11.40;99.90;;;;;;4961083;28;20436;-67
2022/04/30 10:32:01;;;;;;;13.97;9.27;;;11.30;99.90;;;;;;4930782;28;20436;-63
2022/04/30 10:34:47;;;;;;;10.57;9.47;;;11.30;99.90;;;;;;4962904;28;20558;-64
2022/04/30 10:37:32;;;;;;;10.17;9.03;;;11.30;99.90;;;;;;4960444;28;20531;-64
2022/04/30 10:46:38;;;;;;;10.63;9.53;;;11.40;99.90;;;;;;5056174;28;20522;-72
2022/04/30 10:52:51;;;;;;;10.43;9.40;;;11.60;99.90;;;;;;4982022;28;20447;-71
2022/04/30 10:55:28;;;;;;;7.73;7.00;;;11.80;99.90;;;;;;5002513;28;20566;-71
2022/04/30 11:02:01;;;;;;;8.83;8.03;;;11.90;99.90;;;;;;5045357;28;20810;-73
2022/04/30 11:05:18;;;;;;;7.90;7.10;;;12.20;99.90;;;;;;5044115;28;20455;-72
2022/04/30 11:11:28;;;;;;;7.20;6.50;;;12.20;99.90;;;;;;5033353;28;20446;-73
2022/04/30 11:14:28;;;;;;;8.50;7.70;;;12.20;99.90;;;;;;5040865;28;21110;-74
2022/04/30 11:17:21;;;;;;;5.73;5.17;;;12.10;99.90;;;;;;5044299;28;20485;-73
2022/04/30 11:20:38;;;;;;;5.20;4.70;;;12.10;99.90;;;;;;5037899;28;20456;-72
2022/04/30 11:26:54;;;;;;;6.10;5.50;;;12.10;99.90;;;;;;5020259;28;20436;-72
2022/04/30 11:30:20;;;;;;;6.37;5.77;;;12.10;99.90;;;;;;5035988;28;20459;-72
2022/04/30 11:37:07;;;;;;;6.80;6.10;;;12.20;99.90;;;;;;4918950;28;20492;-73
2022/04/30 11:43:08;;;;;;;6.27;5.67;;;12.60;99.90;;;;;;5034992;28;20432;-71
2022/04/30 11:46:37;;;;;;;6.63;5.93;;;13.00;99.90;;;;;;5035609;28;20444;-72
2022/04/30 11:49:35;;;;;;;7.53;6.63;;;13.30;99.90;;;;;;5019751;28;20986;-72
2022/04/30 11:52:21;;;;;;;7.37;6.67;;;13.50;99.90;;;;;;5031618;28;20538;-71
2022/04/30 11:54:56;;;;;;;7.40;6.80;;;13.90;99.90;;;;;;5032967;28;20574;-72
2022/04/30 11:57:46;;;;;;;4.97;4.47;;;14.20;99.90;;;;;;5033987;28;20460;-72
2022/04/30 12:00:58;;;;;;;5.67;5.07;;;14.50;99.90;;;;;;5030034;28;20859;-71
2022/04/30 12:03:59;;;;;;;5.90;5.40;;;14.70;99.90;;;;;;5035795;28;20448;-71
2022/04/30 12:06:58;;;;;;;5.83;5.23;;;14.60;99.90;;;;;;5028228;28;20463;-72
2022/04/30 12:12:36;;;;;;;8.60;7.80;;;14.70;99.90;;;;;;5037683;28;20448;-71
2022/04/30 12:24:55;;;;;;;5.47;4.97;;;15.80;99.90;;;;;;4904230;28;20437;-72
2022/04/30 12:27:43;;;;;;;8.23;7.40;;;16.10;99.90;;;;;;4951454;28;20469;-72
2022/04/30 12:30:34;;;;;;;6.97;6.37;;;16.50;99.90;;;;;;4974612;28;20444;-72
2022/04/30 12:36:09;;;;;;;6.03;5.40;;;16.90;99.90;;;;;;4967005;28;20470;-72
2022/04/30 12:39:23;;;;;;;5.90;5.30;;;16.90;99.90;;;;;;4978257;28;20853;-71
2022/04/30 12:42:55;;;;;;;5.43;4.93;;;16.10;99.90;;;;;;4935236;28;20479;-72
2022/04/30 12:45:34;;;;;;;5.67;5.17;;;15.50;99.90;;;;;;4928446;29;20456;-72
2022/04/30 12:48:10;;;;;;;8.53;7.70;;;14.50;99.90;;;;;;4925840;29;20507;-71
2022/04/30 12:50:59;;;;;;;6.70;6.10;;;13.90;99.90;;;;;;4971150;28;20450;-72
2022/04/30 12:53:46;;;;;;;6.20;5.60;;;13.80;99.90;;;;;;4977327;28;20564;-71
2022/04/30 12:56:27;;;;;;;9.10;8.30;;;13.90;99.90;;;;;;4977142;28;20483;-71
2022/04/30 13:02:51;;;;;;;8.97;8.17;;;13.50;99.90;;;;;;4897860;29;20533;-72
2022/04/30 13:05:22;;;;;;;9.60;8.80;;;13.50;99.90;;;;;;4898299;28;20452;-71
2022/04/30 13:08:00;;;;;;;12.83;10.70;;;13.30;99.90;;;;;;4952636;28;20477;-71
2022/04/30 13:13:51;;;;;;;11.93;10.83;;;13.00;99.90;;;;;;4960241;28;20510;-69
2022/04/30 13:22:58;;;;;;;13.70;12.30;;;12.60;99.90;;;;;;4959605;28;20440;-72
2022/04/30 13:35:16;;;;;;;13.17;11.47;;;12.50;99.90;;;;;;4959625;28;20483;-71
2022/04/30 13:38:12;;;;;;;13.67;12.27;;;12.60;99.90;;;;;;4954672;28;20467;-72
2022/04/30 13:46:56;;;;;;;15.70;14.10;;;12.40;99.90;;;;;;5007526;28;20446;-72
2022/04/30 13:49:38;;;;;;;15.63;13.63;;;12.30;99.90;;;;;;5041431;28;20444;-71
2022/04/30 13:52:33;;;;;;;15.07;13.57;;;12.40;99.90;;;;;;5041779;28;20432;-71
2022/04/30 13:55:25;;;;;;;15.60;13.63;;;12.60;99.90;;;;;;5041087;28;20475;-71
2022/04/30 14:01:56;;;;;;;14.73;13.23;;;13.00;99.90;;;;;;5035663;28;20448;-72
2022/04/30 14:04:36;;;;;;;15.50;14.00;;;13.30;99.90;;;;;;5041391;28;20498;-72
2022/04/30 14:07:42;;;;;;;15.50;13.90;;;13.40;99.90;;;;;;5048088;28;22295;-70
2022/04/30 14:10:41;;;;;;;13.27;11.90;;;13.20;99.90;;;;;;5040438;28;20505;-70
2022/04/30 14:17:01;;;;;;;14.83;13.47;;;13.00;99.90;;;;;;5038421;28;20550;-70
2022/04/30 14:32:01;;;;;;;14.57;12.93;;;13.00;99.90;;;;;;4938145;29;20494;-71
2022/04/30 14:40:28;;;;;;;13.97;12.33;;;12.90;99.90;;;;;;4939025;29;20479;-70
2022/04/30 14:43:12;;;;;;;15.43;13.83;;;13.10;99.90;;;;;;4954250;28;20866;-71
2022/04/30 14:46:05;;;;;;;15.07;13.57;;;13.10;99.90;;;;;;5016939;28;20482;-71
2022/04/30 14:48:46;;;;;;;15.00;13.13;;;12.90;99.90;;;;;;5019507;28;20444;-70
2022/04/30 14:52:09;;;;;;;14.57;13.17;;;12.80;99.90;;;;;;5046612;28;20480;-71
2022/04/30 14:55:05;;;;;;;15.30;13.70;;;12.80;99.90;;;;;;5042914;28;20503;-71
2022/04/30 14:58:02;;;;;;;12.97;11.70;;;12.70;99.90;;;;;;5046384;28;20491;-71
2022/04/30 15:04:10;;;;;;;12.43;11.20;;;13.10;99.90;;;;;;5057127;28;20473;-70
2022/04/30 15:07:03;;;;;;;11.13;10.00;;;13.10;99.90;;;;;;5063719;28;20452;-70
2022/04/30 15:09:49;;;;;;;12.90;11.60;;;13.00;99.90;;;;;;5049776;28;20498;-70
2022/04/30 15:12:34;;;;;;;;;;;;;;;;;;;;;
2022/04/30 15:15:14;;;;;;;12.10;9.83;;;13.00;99.90;;;;;;5030430;28;20447;-71
2022/04/30 15:21:13;;;;;;;12.50;11.00;;;12.70;99.90;;;;;;5028609;28;20532;-72
2022/04/30 15:23:54;;;;;;;13.20;11.90;;;12.70;99.90;;;;;;5030179;28;20528;-72
2022/04/30 15:29:56;;;;;;;;;;;;;;;;;;;;;
2022/04/30 15:32:41;;;;;;;13.83;12.43;;;12.90;99.90;;;;;;5040400;28;20448;-71
2022/04/30 15:35:34;;;;;;;13.33;11.97;;;12.80;99.90;;;;;;5038542;28;20458;-72
2022/04/30 15:38:25;;;;;;;13.80;11.90;;;12.60;99.90;;;;;;5044191;28;20471;-71
2022/04/30 15:41:25;;;;;;;12.70;11.50;;;12.50;99.90;;;;;;5044304;28;20548;-71
2022/04/30 15:44:27;;;;;;;14.67;12.80;;;12.40;99.90;;;;;;5049755;28;20483;-72
2022/04/30 15:53:47;;;;;;;13.93;12.53;;;12.40;99.90;;;;;;5048594;28;20523;-72
2022/04/30 16:02:26;;;;;;;13.13;11.83;;;12.50;99.90;;;;;;5029507;28;20548;-70
2022/04/30 16:07:49;;;;;;;13.17;11.80;;;12.50;99.90;;;;;;5040433;28;20517;-71
2022/04/30 16:10:51;;;;;;;13.83;12.30;;;12.30;99.90;;;;;;5046156;28;20455;-70
2022/04/30 16:13:51;;;;;;;13.60;12.20;;;12.30;99.90;;;;;;5047302;28;20451;-71
2022/04/30 16:17:03;;;;;;;;;;;;;;;;;;;;;
2022/04/30 16:19:58;;;;;;;13.93;12.10;;;12.00;99.90;;;;;;5046935;28;20449;-71
2022/04/30 16:22:59;;;;;;;13.10;11.70;;;11.90;99.90;;;;;;5039322;28;20532;-72
2022/04/30 16:26:18;;;;;;;14.00;12.57;;;12.00;99.90;;;;;;5037027;28;20839;-71
2022/04/30 16:29:09;;;;;;;15.17;13.50;;;11.80;99.90;;;;;;5003598;28;20523;-71
2022/04/30 16:34:47;;;;;;;16.47;14.27;;;11.70;99.90;;;;;;5046491;28;20887;-71
2022/04/30 16:37:38;;;;;;;14.80;13.20;;;11.60;99.90;;;;;;5040177;28;20570;-71
2022/04/30 16:40:18;;;;;;;15.60;14.00;;;11.70;99.90;;;;;;4999979;28;20970;-71
2022/04/30 16:43:27;;;;;;;;;;;;;;;;;;;;;
2022/04/30 16:46:35;;;;;;;18.07;14.07;;;11.50;99.90;;;;;;5040738;28;20464;-71
2022/04/30 16:49:15;;;;;;;16.60;14.00;;;11.40;99.90;;;;;;5031425;28;20509;-71
2022/04/30 17:00:37;;;;;;;14.67;12.80;;;11.30;99.90;;;;;;5004556;28;20441;-71
2022/04/30 17:03:31;;;;;;;16.60;15.00;;;11.40;99.90;;;;;;5036828;28;20466;-71
2022/04/30 17:09:23;;;;;;;14.40;12.73;;;11.40;99.90;;;;;;5039499;28;20448;-71
2022/04/30 17:14:59;;;;;;;16.87;14.43;;;11.40;99.90;;;;;;5037769;28;20444;-70
2022/04/30 17:17:29;;;;;;;21.97;15.53;;;11.30;99.90;;;;;;5035376;28;21013;-70
2022/04/30 17:20:12;;;;;;;16.60;14.90;;;11.30;99.90;;;;;;5039284;28;20440;-70
2022/04/30 17:22:55;;;;;;;16.60;13.97;;;11.30;99.90;;;;;;5043140;28;20456;-71
2022/04/30 17:25:41;;;;;;;18.17;16.27;;;11.40;99.90;;;;;;5043135;28;20499;-70
2022/04/30 17:28:17;;;;;;;16.50;14.80;;;11.30;99.90;;;;;;5046656;28;20483;-70
2022/04/30 17:39:12;;;;;;;17.80;15.70;;;11.00;99.90;;;;;;5047615;28;20430;-71
2022/04/30 17:41:45;;;;;;;21.10;18.03;;;10.90;99.90;;;;;;5044767;28;20447;-71
2022/04/30 17:44:19;;;;;;;22.53;18.40;;;10.80;99.90;;;;;;5051690;28;20538;-71
2022/04/30 17:47:13;;;;;;;21.83;18.03;;;10.80;99.90;;;;;;5055546;28;20503;-71
2022/04/30 17:49:48;;;;;;;22.23;19.37;;;10.80;99.90;;;;;;5046574;28;20450;-71
2022/04/30 17:52:24;;;;;;;23.03;20.50;;;10.70;99.90;;;;;;5047069;28;21449;-71
2022/04/30 17:55:12;;;;;;;22.03;19.77;;;10.60;99.90;;;;;;5049659;28;20498;-71
2022/04/30 18:00:51;;;;;;;20.17;16.40;;;10.70;99.90;;;;;;5049242;28;20432;-71
2022/04/30 18:03:45;;;;;;;21.90;17.77;;;10.70;99.90;;;;;;5044588;28;20579;-70
2022/04/30 18:09:22;;;;;;;21.47;19.27;;;10.60;99.90;;;;;;5036371;28;20799;-71
2022/04/30 18:12:39;;;;;;;22.37;18.20;;;10.60;99.90;;;;;;5043140;28;20452;-71
2022/04/30 18:15:23;;;;;;;21.67;17.57;;;10.60;99.90;;;;;;4979580;28;20992;-71
2022/04/30 18:18:11;;;;;;;19.83;17.77;;;10.60;99.90;;;;;;5048422;28;20494;-72
2022/04/30 18:20:50;;;;;;;21.03;19.03;;;10.50;99.90;;;;;;5049471;28;20436;-71
2022/04/30 18:23:44;;;;;;;20.97;18.53;;;10.50;99.90;;;;;;5034716;28;20451;-71
2022/04/30 18:26:58;;;;;;;25.23;20.00;;;10.50;99.90;;;;;;4960869;28;20452;-72
2022/04/30 18:39:26;;;;;;;21.20;18.67;;;10.30;99.90;;;;;;4924375;28;21002;-71
2022/04/30 18:49:23;;;;;;;22.90;19.40;;;10.40;99.90;;;;;;4852160;29;20922;-71
2022/04/30 18:52:27;;;;;;;21.07;18.87;;;10.40;99.90;;;;;;4928984;28;20495;-71
2022/04/30 19:10:48;;;;;;;24.80;20.67;;;10.20;99.90;;;;;;5024225;28;20435;-71
2022/04/30 19:14:13;;;;;;;21.77;19.13;;;10.30;99.90;;;;;;5049840;28;21225;-71
2022/04/30 19:17:17;;;;;;;21.00;18.80;;;10.30;99.90;;;;;;5000066;28;20484;-71
2022/04/30 19:20:24;;;;;;;25.17;19.30;;;10.20;99.90;;;;;;5048212;28;20456;-70
2022/04/30 19:26:28;;;;;;;24.43;20.77;;;10.20;99.90;;;;;;5033120;28;20436;-71
2022/04/30 19:29:31;;;;;;;29.03;22.63;;;10.30;99.90;;;;;;5049260;28;20435;-70
2022/04/30 19:35:51;;;;;;;24.00;20.80;;;10.30;99.90;;;;;;5050706;28;20486;-72
2022/04/30 19:38:32;;;;;;;25.37;20.50;;;10.30;99.90;;;;;;5044615;28;20499;-71
2022/04/30 19:50:07;;;;;;;24.03;20.67;;;10.20;99.90;;;;;;5055580;28;21011;-66
2022/04/30 19:55:58;;;;;;;23.37;20.70;;;10.20;99.90;;;;;;5051278;28;20866;-66
2022/04/30 19:58:52;;;;;;;22.53;19.70;;;10.20;99.90;;;;;;5059541;28;20491;-66
2022/04/30 20:02:10;;;;;;;24.33;20.77;;;10.20;99.90;;;;;;5070285;28;20474;-66
2022/04/30 20:05:03;;;;;;;26.00;21.60;;;10.20;99.90;;;;;;5030002;28;20451;-66
2022/04/30 20:08:07;;;;;;;22.50;19.87;;;10.20;99.90;;;;;;5063102;28;20543;-66
2022/04/30 20:17:13;;;;;;;24.20;21.70;;;10.30;99.90;;;;;;5067211;28;20430;-66
2022/04/30 20:20:05;;;;;;;27.30;21.27;;;10.30;99.90;;;;;;5036215;28;20555;-66
2022/04/30 20:23:12;;;;;;;26.47;21.40;;;10.30;99.90;;;;;;5060033;28;20476;-66
2022/04/30 20:26:07;;;;;;;23.53;20.47;;;10.20;99.90;;;;;;5048988;28;20559;-67
2022/04/30 20:28:54;;;;;;;26.53;23.30;;;10.20;99.90;;;;;;5062456;28;20447;-66
2022/04/30 20:40:02;;;;;;;28.97;21.93;;;10.30;99.90;;;;;;5064802;28;20467;-66
2022/04/30 20:42:38;;;;;;;29.30;21.53;;;10.20;99.90;;;;;;5057181;28;20522;-66
2022/04/30 20:45:20;;;;;;;24.20;20.43;;;10.30;99.90;;;;;;5057605;28;20530;-66
2022/04/30 20:48:22;;;;;;;24.90;22.17;;;10.30;99.90;;;;;;5059719;28;20451;-67
2022/04/30 20:50:55;;;;;;;25.03;21.53;;;10.30;99.90;;;;;;5062603;28;20467;-66
2022/04/30 20:53:36;;;;;;;25.10;22.37;;;10.30;99.90;;;;;;5068369;28;20443;-66
2022/04/30 20:59:29;;;;;;;25.87;20.93;;;10.30;99.90;;;;;;5022275;28;21038;-67